Time;durP1;ratioP1;P1;durP2;ratioP2;P2;SDS_P1;SDS_P2;PMS_P1;PMS_P2;Temp;Humidity;BMP_temperature;BMP_pressure;BME280_temperature;BME280_humidity;BME280_pressure;Samples;Min_cycle;Max_cycle;Signal;HPM_P1;HPM_P2
2023/08/08 00:02:26;;;;;;;76.33;71.72;;;;;;;15.25;77.67;99355.42;1817525;79;25512;-47
2023/08/08 00:04:52;;;;;;;73.35;68.60;;;;;;;15.23;77.35;99349.55;1790298;79;25640;-44
2023/08/08 00:07:18;;;;;;;74.80;70.00;;;;;;;15.23;77.67;99352.28;1817626;79;27417;-44
2023/08/08 00:09:44;;;;;;;72.87;68.47;;;;;;;15.23;77.66;99355.59;1817629;79;25594;-46
2023/08/08 00:12:10;;;;;;;75.17;70.37;;;;;;;15.22;77.44;99356.72;1817624;79;25395;-47
2023/08/08 00:14:36;;;;;;;78.00;73.02;;;;;;;15.21;77.18;99367.42;1817571;79;25614;-46
2023/08/08 00:17:04;;;;;;;75.83;71.12;;;;;;;15.21;77.36;99366.84;1790159;79;25558;-45
2023/08/08 00:19:30;;;;;;;80.07;75.22;;;;;;;15.21;77.43;99367.42;1817586;79;27279;-45
2023/08/08 00:21:57;;;;;;;73.20;68.62;;;;;;;15.18;77.18;99373.02;1817535;79;25793;-44
2023/08/08 00:24:23;;;;;;;76.40;71.70;;;;;;;15.17;76.88;99376.91;1817598;79;25561;-46
2023/08/08 00:26:50;;;;;;;72.75;68.25;;;;;;;15.18;76.88;99380.41;1817503;79;33922;-44
2023/08/08 00:29:16;;;;;;;73.75;68.90;;;;;;;15.16;76.33;99379.41;1817682;79;25601;-43
2023/08/08 00:31:42;;;;;;;73.55;69.03;;;;;;;15.15;76.18;99381.90;1817603;79;27391;-44
2023/08/08 00:34:08;;;;;;;73.25;68.62;;;;;;;15.13;76.00;99396.45;1817563;79;25678;-45
2023/08/08 00:36:34;;;;;;;74.55;70.12;;;;;;;15.11;76.08;99386.50;1817610;79;25473;-44
2023/08/08 00:39:00;;;;;;;72.70;68.12;;;;;;;15.09;75.60;99394.26;1817626;78;34645;-47
2023/08/08 00:41:26;;;;;;;74.82;70.17;;;;;;;15.08;75.43;99405.70;1817603;79;25542;-44
2023/08/08 00:43:52;;;;;;;72.03;67.35;;;;;;;15.06;75.23;99403.92;1790117;79;27066;-44
2023/08/08 00:46:24;;;;;;;71.77;67.30;;;;;;;15.04;74.87;99406.22;1790062;79;26010;-46
2023/08/08 00:48:52;;;;;;;72.47;67.85;;;;;;;15.04;74.61;99417.70;1817601;79;25575;-46
2023/08/08 00:51:20;;;;;;;70.22;65.83;;;;;;;15.01;74.31;99415.69;1817860;79;25392;-46
2023/08/08 00:53:48;;;;;;;72.65;68.15;;;;;;;15.00;74.08;99416.83;1790038;79;25483;-45
2023/08/08 00:56:16;;;;;;;73.60;68.72;;;;;;;14.99;73.87;99424.22;1817608;78;27297;-45
2023/08/08 00:58:47;;;;;;;74.25;69.42;;;;;;;14.98;73.54;99420.48;1817688;78;25618;-44
2023/08/08 01:01:13;;;;;;;70.90;66.47;;;;;;;14.97;73.33;99423.02;1817643;79;25418;-45
2023/08/08 01:03:39;;;;;;;72.97;68.28;;;;;;;14.93;73.21;99422.92;1817510;79;25555;-45
2023/08/08 01:06:32;;;;;;;74.60;69.62;;;;;;;14.93;73.01;99422.92;1790221;79;25650;-45
2023/08/08 01:09:04;;;;;;;75.75;70.80;;;;;;;14.92;72.91;99427.59;1790166;79;27311;-45
2023/08/08 01:11:34;;;;;;;75.28;70.67;;;;;;;14.91;72.84;99430.66;1815798;79;25809;-46
2023/08/08 01:14:02;;;;;;;72.20;67.35;;;;;;;14.90;72.64;99438.05;1817650;79;25558;-45
2023/08/08 01:16:30;;;;;;;76.07;71.17;;;;;;;14.91;72.48;99432.84;1817546;79;25460;-46
2023/08/08 01:18:57;;;;;;;72.53;67.90;;;;;;;14.91;72.36;99434.20;1817651;79;25534;-46
2023/08/08 01:21:27;;;;;;;75.05;69.90;;;;;;;14.90;72.14;99438.64;1817521;78;28002;-45
2023/08/08 01:24:16;;;;;;;72.95;68.42;;;;;;;14.88;72.11;99450.44;1817583;79;25441;-46
2023/08/08 01:26:42;;;;;;;76.17;71.47;;;;;;;14.87;72.13;99451.59;1816727;79;25428;-45
2023/08/08 01:29:08;;;;;;;72.05;67.65;;;;;;;14.84;72.14;99446.28;1814390;79;25399;-45
2023/08/08 01:31:35;;;;;;;75.22;70.50;;;;;;;14.83;72.11;99456.16;1814409;79;25447;-44
2023/08/08 01:34:01;;;;;;;73.45;69.05;;;;;;;14.83;72.07;99460.25;1814408;79;26846;-46
2023/08/08 01:36:39;;;;;;;73.50;69.10;;;;;;;14.81;72.00;99459.83;1814315;78;25428;-47
2023/08/08 01:39:10;;;;;;;72.10;67.60;;;;;;;14.79;71.93;99463.48;1781924;79;25571;-46
2023/08/08 01:41:40;;;;;;;12.68;8.88;;;;;;;14.75;71.90;99472.94;1814225;79;25593;-45
2023/08/08 01:44:07;;;;;;;4.35;2.67;;;;;;;14.73;71.92;99471.16;1814588;79;25221;-46
2023/08/08 01:46:36;;;;;;;33.28;31.33;;;;;;;14.73;71.88;99475.23;1814425;79;26939;-44
2023/08/08 01:49:02;;;;;;;75.72;70.75;;;;;;;14.68;71.73;99480.38;1814482;79;25671;-46
2023/08/08 01:51:29;;;;;;;78.12;73.28;;;;;;;14.65;71.71;99483.02;1814438;78;25572;-46
2023/08/08 01:53:56;;;;;;;73.22;68.62;;;;;;;14.61;71.73;99473.98;1814363;79;26013;-44
2023/08/08 01:56:22;;;;;;;74.65;69.75;;;;;;;14.57;71.72;99481.48;1814549;79;25521;-45
2023/08/08 01:58:48;;;;;;;76.92;72.05;;;;;;;14.54;71.80;99480.83;1814562;79;27375;-45
2023/08/08 02:01:15;;;;;;;72.47;67.82;;;;;;;14.52;71.70;99474.96;1814510;79;25566;-44
2023/08/08 02:03:41;;;;;;;73.35;68.70;;;;;;;14.51;71.72;99480.75;1814557;79;25500;-45
2023/08/08 02:06:07;;;;;;;73.17;68.33;;;;;;;14.49;71.70;99488.45;1814563;79;25590;-44
2023/08/08 02:08:33;;;;;;;77.50;72.62;;;;;;;14.47;71.58;99488.03;1814641;79;25585;-45
2023/08/08 02:10:59;;;;;;;76.72;71.95;;;;;;;14.45;71.51;99493.83;1814537;79;27383;-44
2023/08/08 02:13:26;;;;;;;80.57;75.52;;;;;;;14.44;71.56;99493.62;1814420;79;25815;-46
2023/08/08 02:15:52;;;;;;;74.65;70.00;;;;;;;14.43;71.66;99498.84;1814554;79;25578;-45
2023/08/08 02:18:19;;;;;;;75.65;70.65;;;;;;;14.45;71.67;99500.63;1814559;79;25437;-45
2023/08/08 02:20:45;;;;;;;73.95;69.32;;;;;;;14.45;71.73;99513.45;1814611;79;25432;-45
2023/08/08 02:23:11;;;;;;;75.85;71.22;;;;;;;14.42;71.86;99495.92;1784905;79;27199;-45
2023/08/08 02:25:37;;;;;;;77.62;72.42;;;;;;;14.38;71.69;99506.69;1814438;79;25780;-44
2023/08/08 02:28:05;;;;;;;72.40;67.60;;;;;;;14.37;71.78;99506.49;1816932;79;25542;-45
2023/08/08 02:30:32;;;;;;;75.05;70.25;;;;;;;14.36;71.80;99508.98;1817670;79;25933;-45
2023/08/08 02:32:58;;;;;;;75.22;70.22;;;;;;;14.32;71.63;99512.20;1817751;79;25357;-45
2023/08/08 02:35:25;;;;;;;60.78;56.92;;;;;;;14.29;71.54;99525.14;1817669;79;27323;-44
2023/08/08 02:37:51;;;;;;;75.15;70.25;;;;;;;14.27;71.56;99523.35;1817619;79;25524;-44
2023/08/08 02:40:17;;;;;;;73.50;68.87;;;;;;;14.24;71.45;99528.13;1817686;78;25345;-45
2023/08/08 02:42:44;;;;;;;56.65;53.28;;;;;;;14.17;71.48;99520.59;1817688;79;25554;-44
2023/08/08 02:45:11;;;;;;;79.87;74.85;;;;;;;14.16;71.51;99528.52;1817735;79;25432;-44
2023/08/08 02:47:37;;;;;;;26.33;24.50;;;;;;;14.13;71.55;99532.52;1817724;79;27450;-45
2023/08/08 02:50:04;;;;;;;57.83;54.08;;;;;;;14.11;71.57;99538.88;1790093;79;25667;-47
2023/08/08 02:52:31;;;;;;;13.32;11.95;;;;;;;14.08;71.63;99539.57;1817743;79;25458;-45
2023/08/08 02:54:57;;;;;;;64.60;60.45;;;;;;;14.06;71.69;99545.36;1817707;79;25380;-44
2023/08/08 02:57:23;;;;;;;20.23;18.77;;;;;;;14.04;71.62;99538.70;1817664;79;25561;-45
2023/08/08 02:59:49;;;;;;;22.65;21.15;;;;;;;14.02;71.68;99545.85;1817707;79;27395;-43
2023/08/08 03:02:15;;;;;;;75.92;71.10;;;;;;;13.98;71.83;99553.92;1817594;79;25627;-45
2023/08/08 03:04:41;;;;;;;75.10;70.30;;;;;;;13.95;71.76;99551.89;1817623;79;25441;-44
2023/08/08 03:07:08;;;;;;;75.40;70.55;;;;;;;13.93;71.69;99556.90;1817619;78;25439;-47
2023/08/08 03:09:34;;;;;;;80.32;75.10;;;;;;;13.91;71.63;99563.81;1817736;79;25598;-45
2023/08/08 03:12:00;;;;;;;9.40;8.80;;;;;;;13.89;71.52;99560.66;1817763;79;27383;-45
2023/08/08 03:14:27;;;;;;;82.02;76.82;;;;;;;13.87;71.43;99571.88;1817637;79;25610;-47
2023/08/08 03:16:53;;;;;;;76.37;71.47;;;;;;;13.86;71.37;99570.86;1817739;79;25548;-46
2023/08/08 03:19:19;;;;;;;50.85;47.60;;;;;;;13.82;71.37;99568.05;1817722;79;25388;-46
2023/08/08 03:21:48;;;;;;;76.33;71.12;;;;;;;13.81;71.36;99575.42;1817760;79;25377;-48
2023/08/08 03:24:14;;;;;;;74.67;69.87;;;;;;;13.80;71.29;99582.56;1817663;78;27993;-47
2023/08/08 03:26:40;;;;;;;75.08;70.32;;;;;;;13.77;71.35;99592.77;1816193;78;25496;-46
2023/08/08 03:29:10;;;;;;;76.85;71.95;;;;;;;13.76;71.19;99579.75;1783012;80;25600;-48
2023/08/08 03:31:35;;;;;;;80.62;75.57;;;;;;;13.74;71.18;99583.39;1782720;80;25979;-48
2023/08/08 03:34:01;;;;;;;79.47;74.32;;;;;;;13.71;71.14;99588.73;1783001;80;25544;-47
2023/08/08 03:36:28;;;;;;;80.45;75.22;;;;;;;13.71;71.13;99591.45;1782922;80;27328;-46
2023/08/08 03:38:56;;;;;;;78.30;73.22;;;;;;;13.68;71.13;99595.64;1782807;80;25559;-48
2023/08/08 03:41:22;;;;;;;77.35;72.40;;;;;;;13.68;71.12;99602.44;1782906;80;25421;-45
2023/08/08 03:43:48;;;;;;;73.87;69.15;;;;;;;13.64;71.19;99597.48;1782950;80;25436;-48
2023/08/08 03:46:14;;;;;;;75.83;70.85;;;;;;;13.63;71.29;99612.19;1783074;80;25412;-46
2023/08/08 03:48:40;;;;;;;76.35;71.67;;;;;;;13.60;71.28;99610.16;1783049;80;27425;-47
2023/08/08 03:51:06;;;;;;;76.92;71.72;;;;;;;13.60;71.32;99618.31;1782857;80;25586;-47
2023/08/08 03:53:33;;;;;;;78.75;73.67;;;;;;;13.58;71.53;99617.88;1782913;80;25405;-45
2023/08/08 03:56:00;;;;;;;76.70;71.67;;;;;;;13.57;71.62;99613.56;1782921;80;25574;-47
2023/08/08 03:58:26;;;;;;;76.95;72.05;;;;;;;13.55;71.69;99626.71;1782943;80;25621;-45
2023/08/08 04:00:52;;;;;;;75.62;70.67;;;;;;;13.54;71.63;99628.64;1782935;80;27331;-44
2023/08/08 04:03:18;;;;;;;76.40;71.02;;;;;;;13.54;71.66;99634.66;1782854;80;25383;-45
2023/08/08 04:05:47;;;;;;;75.55;70.65;;;;;;;13.53;71.76;99634.42;1740004;80;25405;-48
2023/08/08 04:08:15;;;;;;;74.77;70.08;;;;;;;13.53;71.74;99635.78;1782923;80;25538;-45
2023/08/08 04:10:43;;;;;;;75.50;70.70;;;;;;;13.52;71.77;99643.15;1782985;80;25461;-45
2023/08/08 04:13:10;;;;;;;34.67;32.45;;;;;;;13.52;71.98;99643.70;1782937;80;27323;-46
2023/08/08 04:15:37;;;;;;;5.78;5.05;;;;;;;13.52;71.91;99649.94;1782827;80;25537;-44
2023/08/08 04:18:06;;;;;;;6.83;3.47;;;;;;;13.54;72.06;99649.02;1783006;80;25450;-45
2023/08/08 04:20:34;;;;;;;;;;;;;;;13.55;72.06;99657.41;1771543;80;25637;-46
2023/08/08 04:23:01;;;;;;;9.88;8.48;;;;;;;13.59;72.21;99667.02;1782973;80;25607;-46
2023/08/08 04:25:28;;;;;;;74.72;70.05;;;;;;;13.59;72.15;99664.30;1782852;80;27860;-46
2023/08/08 04:27:55;;;;;;;77.42;72.47;;;;;;;13.64;72.23;99662.12;1795612;79;25562;-48
2023/08/08 04:30:23;;;;;;;26.62;24.50;;;;;;;13.68;72.07;99670.95;1814463;79;25425;-48
2023/08/08 04:32:50;;;;;;;26.00;24.02;;;;;;;13.70;72.09;99670.81;1784674;79;25625;-46
2023/08/08 04:35:16;;;;;;;4.08;3.60;;;;;;;13.73;72.04;99679.64;1814454;79;25587;-44
2023/08/08 04:37:43;;;;;;;29.02;26.87;;;;;;;13.74;72.00;99676.34;1784799;79;27454;-44
2023/08/08 04:40:11;;;;;;;21.37;20.00;;;;;;;13.75;71.94;99668.42;1814379;79;25602;-45
2023/08/08 04:42:37;;;;;;;13.05;11.83;;;;;;;13.77;71.90;99681.91;1784630;79;25486;-45
2023/08/08 04:45:07;;;;;;;43.85;40.80;;;;;;;13.79;71.90;99680.98;1814357;79;25587;-43
2023/08/08 04:47:33;;;;;;;54.40;51.08;;;;;;;13.82;72.12;99679.50;1814572;79;25634;-44
2023/08/08 04:49:59;;;;;;;69.35;65.03;;;;;;;13.90;72.05;99680.50;1814464;79;27307;-45
2023/08/08 04:52:25;;;;;;;66.05;61.37;;;;;;;13.93;71.75;99679.23;1814301;79;25586;-43
2023/08/08 04:54:51;;;;;;;72.00;67.62;;;;;;;13.96;71.73;99680.45;1814369;79;25596;-45
2023/08/08 04:57:18;;;;;;;77.00;72.05;;;;;;;13.99;71.77;99683.27;1784768;79;25501;-44
2023/08/08 04:59:44;;;;;;;75.92;71.10;;;;;;;14.03;71.69;99684.75;1814420;79;25592;-44
2023/08/08 05:02:10;;;;;;;74.77;69.80;;;;;;;14.08;71.54;99704.09;1814378;79;27342;-44
2023/08/08 05:04:37;;;;;;;80.67;75.80;;;;;;;14.08;71.32;99693.21;1784517;79;25506;-46
2023/08/08 05:07:04;;;;;;;78.75;73.72;;;;;;;14.10;71.26;99699.90;1814366;79;25594;-43
2023/08/08 05:09:30;;;;;;;87.50;81.97;;;;;;;14.13;71.29;99699.20;1814379;78;25511;-46
2023/08/08 05:11:56;;;;;;;75.57;70.97;;;;;;;14.17;71.23;99702.80;1814069;79;25971;-45
2023/08/08 05:14:23;;;;;;;75.50;70.37;;;;;;;14.24;71.27;99704.92;1784580;79;27489;-45
2023/08/08 05:16:49;;;;;;;75.72;70.80;;;;;;;14.34;71.24;99705.78;1814280;79;25810;-46
2023/08/08 05:19:15;;;;;;;27.45;25.20;;;;;;;14.45;70.95;99702.55;1814439;79;25465;-46
2023/08/08 05:21:41;;;;;;;8.70;5.42;;;;;;;14.56;71.05;99719.95;1814372;79;25478;-45
2023/08/08 05:24:07;;;;;;;5.62;5.15;;;;;;;14.67;70.82;99710.14;1814405;79;25609;-44
2023/08/08 05:26:33;;;;;;;16.90;15.78;;;;;;;14.76;70.31;99699.08;1784917;79;27324;-43
2023/08/08 05:29:00;;;;;;;76.10;71.25;;;;;;;14.77;69.94;99724.39;1816568;79;25370;-43
2023/08/08 05:31:26;;;;;;;78.10;73.37;;;;;;;14.78;69.60;99713.70;1817540;79;25385;-43
2023/08/08 05:33:52;;;;;;;74.30;69.90;;;;;;;14.77;69.51;99717.58;1817516;79;25440;-45
2023/08/08 05:36:19;;;;;;;74.90;70.30;;;;;;;14.79;69.47;99719.37;1817565;79;25415;-44
2023/08/08 05:38:45;;;;;;;72.72;68.17;;;;;;;14.82;69.25;99719.46;1817597;79;27766;-45
2023/08/08 05:41:11;;;;;;;75.52;70.78;;;;;;;14.83;68.72;99722.41;1817438;79;25469;-45
2023/08/08 05:43:37;;;;;;;76.53;71.77;;;;;;;14.84;69.04;99714.45;1790084;79;25583;-44
2023/08/08 05:46:03;;;;;;;76.62;71.72;;;;;;;14.88;68.73;99731.68;1790055;79;25626;-43
2023/08/08 05:48:29;;;;;;;74.60;69.80;;;;;;;14.93;69.31;99722.44;1817588;79;25617;-45
2023/08/08 05:50:58;;;;;;;74.10;69.60;;;;;;;14.99;68.89;99733.30;1817551;79;27375;-43
2023/08/08 05:53:24;;;;;;;77.08;72.15;;;;;;;15.07;69.14;99722.80;1817308;79;25599;-45
2023/08/08 05:55:50;;;;;;;76.37;71.77;;;;;;;15.17;68.71;99737.81;1817597;79;25538;-44
2023/08/08 05:58:17;;;;;;;72.22;67.78;;;;;;;15.22;68.78;99736.19;1817525;79;25465;-45
2023/08/08 06:00:43;;;;;;;74.47;69.58;;;;;;;15.29;68.10;99733.62;1817577;79;25538;-43
2023/08/08 06:03:09;;;;;;;74.90;70.08;;;;;;;15.30;67.32;99735.18;1817542;79;27316;-45
2023/08/08 06:05:35;;;;;;;84.87;79.37;;;;;;;15.30;67.36;99740.63;1817384;79;25533;-43
2023/08/08 06:08:06;;;;;;;72.67;68.10;;;;;;;15.34;67.59;99741.29;1817572;79;25528;-46
2023/08/08 06:10:31;;;;;;;75.47;70.78;;;;;;;15.38;67.52;99742.96;1790717;79;25540;-43
2023/08/08 06:12:57;;;;;;;72.27;67.30;;;;;;;15.42;67.14;99754.72;1817572;79;25532;-44
2023/08/08 06:15:23;;;;;;;75.05;70.57;;;;;;;15.49;67.56;99748.64;1817514;79;27408;-44
2023/08/08 06:17:49;;;;;;;73.05;68.35;;;;;;;15.53;66.56;99760.98;1817594;78;25445;-45
2023/08/08 06:20:15;;;;;;;72.85;68.17;;;;;;;15.49;66.41;99753.55;1817651;79;25230;-43
2023/08/08 06:22:42;;;;;;;72.40;67.55;;;;;;;15.45;66.47;99747.78;1817614;79;35239;-47
2023/08/08 06:25:08;;;;;;;73.92;69.20;;;;;;;15.48;66.77;99751.17;1817525;79;25538;-44
2023/08/08 06:27:35;;;;;;;74.77;70.17;;;;;;;15.48;66.48;99756.62;1816940;78;27384;-43
2023/08/08 06:30:02;;;;;;;73.42;68.78;;;;;;;15.51;66.87;99749.09;1782892;80;25575;-45
2023/08/08 06:32:29;;;;;;;72.95;68.30;;;;;;;15.60;67.20;99755.72;1782852;80;25470;-47
2023/08/08 06:34:55;;;;;;;70.90;66.40;;;;;;;15.75;67.30;99760.36;1782808;80;25607;-44
2023/08/08 06:37:21;;;;;;;73.70;68.83;;;;;;;15.82;65.60;99773.36;1782874;80;25352;-47
2023/08/08 06:39:47;;;;;;;72.50;67.85;;;;;;;15.83;66.09;99771.64;1782859;80;27455;-46
2023/08/08 06:42:13;;;;;;;71.00;66.72;;;;;;;15.85;66.07;99780.25;1782812;80;25602;-43
2023/08/08 06:44:44;;;;;;;74.35;69.82;;;;;;;15.86;65.39;99800.12;1783040;80;25614;-44
2023/08/08 06:47:12;;;;;;;71.82;67.60;;;;;;;15.84;65.26;99786.06;1782968;80;25440;-44
2023/08/08 06:49:38;;;;;;;75.10;70.50;;;;;;;15.77;64.47;99768.97;1783028;80;25582;-44
2023/08/08 06:52:06;;;;;;;72.55;68.05;;;;;;;15.74;65.04;99777.83;1783000;80;25860;-44
2023/08/08 06:54:33;;;;;;;75.67;71.07;;;;;;;15.82;65.28;99770.63;1782900;80;25567;-44
2023/08/08 06:57:01;;;;;;;71.72;67.15;;;;;;;15.86;64.91;99770.91;1782960;80;25671;-44
2023/08/08 06:59:28;;;;;;;73.60;69.20;;;;;;;15.85;65.07;99773.98;1782931;80;25613;-44
2023/08/08 07:01:56;;;;;;;72.27;67.62;;;;;;;15.93;65.49;99774.94;1783026;80;25578;-44
2023/08/08 07:04:23;;;;;;;75.37;70.28;;;;;;;16.05;65.89;99772.85;1782965;80;27423;-44
2023/08/08 07:06:49;;;;;;;72.32;67.67;;;;;;;16.21;65.61;99782.94;1782859;80;25375;-45
2023/08/08 07:09:16;;;;;;;71.30;66.97;;;;;;;16.28;64.74;99784.98;1782978;80;25457;-44
2023/08/08 07:11:42;;;;;;;72.40;67.78;;;;;;;16.35;64.65;99789.25;1782948;80;25607;-45
2023/08/08 07:14:08;;;;;;;73.95;69.15;;;;;;;16.46;62.41;99801.73;1783028;80;25637;-43
2023/08/08 07:16:34;;;;;;;77.15;72.40;;;;;;;16.48;63.16;99778.95;1739719;80;27365;-43
2023/08/08 07:19:00;;;;;;;73.60;69.05;;;;;;;16.57;61.57;99791.23;1782844;80;25530;-43
2023/08/08 07:21:26;;;;;;;78.00;73.05;;;;;;;16.69;62.72;99779.94;1783014;80;25615;-43
2023/08/08 07:23:53;;;;;;;73.57;68.97;;;;;;;16.77;61.88;99784.35;1783052;80;25522;-44
2023/08/08 07:26:19;;;;;;;76.33;71.62;;;;;;;16.82;61.64;99784.05;1783072;80;25527;-42
2023/08/08 07:28:45;;;;;;;73.52;68.85;;;;;;;16.92;61.66;99785.42;1794339;79;27850;-43
2023/08/08 07:31:11;;;;;;;74.15;69.27;;;;;;;17.16;61.88;99782.89;1814529;79;25534;-44
2023/08/08 07:33:37;;;;;;;76.07;71.65;;;;;;;17.44;62.48;99797.59;1814560;79;25434;-43
2023/08/08 07:36:05;;;;;;;73.28;68.57;;;;;;;17.64;61.85;99792.02;1814538;79;25549;-43
2023/08/08 07:38:33;;;;;;;74.37;69.55;;;;;;;17.89;61.83;99788.29;1814521;79;25467;-42
2023/08/08 07:40:59;;;;;;;73.75;69.20;;;;;;;18.00;60.49;99789.23;1784772;79;27328;-43
2023/08/08 07:43:26;;;;;;;76.75;72.05;;;;;;;18.07;59.56;99779.73;1814310;79;25538;-44
2023/08/08 07:45:53;;;;;;;74.67;70.20;;;;;;;18.26;57.71;99778.00;1814505;79;25373;-46
2023/08/08 07:48:19;;;;;;;71.47;67.17;;;;;;;18.40;57.87;99773.27;1814482;78;34657;-46
2023/08/08 07:50:45;;;;;;;75.97;71.40;;;;;;;18.57;57.31;99774.03;1784874;79;25399;-42
2023/08/08 07:53:11;;;;;;;72.30;67.80;;;;;;;18.76;58.08;99776.37;1784733;79;27422;-43
2023/08/08 07:55:37;;;;;;;77.30;72.55;;;;;;;18.99;56.75;99777.00;1814411;79;25461;-44
2023/08/08 07:58:04;;;;;;;72.15;67.90;;;;;;;19.04;56.96;99775.88;1814477;79;25445;-44
2023/08/08 08:00:30;;;;;;;75.52;70.95;;;;;;;19.06;55.46;99769.43;1814390;79;25586;-44
2023/08/08 08:02:56;;;;;;;71.37;67.10;;;;;;;18.98;54.85;99782.27;1814508;79;25586;-43
2023/08/08 08:05:23;;;;;;;69.85;65.83;;;;;;;18.96;54.35;99791.45;1814487;79;28025;-44
2023/08/08 08:07:49;;;;;;;70.70;66.40;;;;;;;18.86;54.83;99785.30;1814384;78;25357;-43
2023/08/08 08:10:15;;;;;;;70.35;65.65;;;;;;;18.80;54.25;99786.80;1814500;79;25526;-45
2023/08/08 08:12:43;;;;;;;69.45;65.22;;;;;;;18.77;54.70;99788.33;1814525;79;25541;-43
2023/08/08 08:15:11;;;;;;;70.00;65.80;;;;;;;18.82;54.72;99800.91;1814500;79;25639;-43
2023/08/08 08:17:38;;;;;;;71.02;66.85;;;;;;;18.80;53.45;99793.65;1814687;79;27368;-43
2023/08/08 08:20:10;;;;;;;71.90;67.17;;;;;;;18.71;52.64;99800.80;1814510;79;25560;-43
2023/08/08 08:22:38;;;;;;;72.97;68.28;;;;;;;18.62;54.25;99796.97;1814199;79;25561;-44
2023/08/08 08:25:08;;;;;;;73.07;68.55;;;;;;;18.65;54.30;99783.12;1814669;79;34772;-45
2023/08/08 08:27:37;;;;;;;75.00;70.47;;;;;;;18.77;54.41;99790.28;1814519;79;25436;-44
2023/08/08 08:30:06;;;;;;;71.25;66.82;;;;;;;18.92;54.60;99792.02;1748656;80;27050;-44
2023/08/08 08:32:34;;;;;;;74.97;70.55;;;;;;;19.01;52.85;99796.59;1766783;81;25619;-44
2023/08/08 08:35:06;;;;;;;70.92;66.53;;;;;;;18.97;52.81;99788.16;1766728;81;25471;-44
2023/08/08 08:37:34;;;;;;;74.12;69.67;;;;;;;18.91;51.83;99799.25;1766716;81;25552;-44
2023/08/08 08:40:01;;;;;;;68.95;64.92;;;;;;;18.82;51.59;99789.94;1766736;81;25614;-45
2023/08/08 08:42:28;;;;;;;76.17;71.77;;;;;;;18.97;52.56;99787.56;1766800;81;28126;-44
2023/08/08 08:44:58;;;;;;;71.65;67.45;;;;;;;19.30;52.87;99792.72;1766676;81;25520;-44
2023/08/08 08:47:26;;;;;;;73.83;69.35;;;;;;;19.46;53.21;99799.88;1766784;81;25394;-45
2023/08/08 08:49:54;;;;;;;70.65;66.45;;;;;;;19.96;51.89;99798.85;1766761;81;25575;-43
2023/08/08 08:52:22;;;;;;;71.80;67.50;;;;;;;20.11;50.69;99799.71;1766785;81;25436;-44
2023/08/08 08:54:52;;;;;;;70.52;66.42;;;;;;;20.26;51.12;99806.84;1766794;81;27325;-46
2023/08/08 08:57:19;;;;;;;70.25;66.02;;;;;;;20.38;50.75;99806.27;1766800;81;25997;-45
2023/08/08 08:59:46;;;;;;;70.22;66.02;;;;;;;20.47;50.52;99799.24;1766684;81;25569;-47
2023/08/08 09:02:14;;;;;;;70.80;66.35;;;;;;;20.48;50.09;99806.89;1766695;81;25551;-45
2023/08/08 09:04:42;;;;;;;70.95;66.80;;;;;;;20.41;48.31;99797.26;1766730;81;25197;-48
2023/08/08 09:07:10;;;;;;;67.55;63.45;;;;;;;20.59;50.07;99789.08;1766697;81;27298;-45
2023/08/08 09:09:37;;;;;;;73.05;68.65;;;;;;;20.75;48.73;99792.86;1766629;80;25619;-45
2023/08/08 09:12:06;;;;;;;70.22;65.97;;;;;;;20.95;49.55;99794.06;1766737;81;25603;-45
2023/08/08 09:14:33;;;;;;;72.27;67.90;;;;;;;20.90;47.55;99795.82;1766802;81;25412;-45
2023/08/08 09:17:02;;;;;;;69.62;65.62;;;;;;;20.73;47.11;99797.36;1766741;80;25600;-45
2023/08/08 09:19:31;;;;;;;71.28;66.92;;;;;;;20.58;47.02;99805.35;1766749;81;29492;-44
2023/08/08 09:21:57;;;;;;;71.15;66.80;;;;;;;20.40;47.38;99838.25;1766730;81;25555;-44
2023/08/08 09:24:24;;;;;;;70.00;65.78;;;;;;;20.10;47.04;99819.50;1766707;81;25552;-45
2023/08/08 09:26:52;;;;;;;69.62;65.52;;;;;;;19.78;47.28;99816.02;1766706;81;25385;-45
2023/08/08 09:29:21;;;;;;;69.60;65.55;;;;;;;19.52;47.62;99813.45;1772154;78;25440;-44
2023/08/08 09:31:50;;;;;;;;;;;;;;;19.35;48.17;99821.16;1785644;80;27356;-46
2023/08/08 09:34:16;;;;;;;73.40;68.72;;;;;;;19.18;48.24;99829.44;1756360;80;25631;-46
2023/08/08 09:36:45;;;;;;;74.15;69.45;;;;;;;19.05;48.11;99814.44;1782905;80;25634;-46
2023/08/08 09:39:11;;;;;;;73.20;68.80;;;;;;;18.95;48.56;99813.20;1783067;80;25533;-46
2023/08/08 09:41:42;;;;;;;75.03;70.30;;;;;;;18.90;49.19;99825.87;1756338;80;25474;-46
2023/08/08 09:44:12;;;;;;;74.00;69.45;;;;;;;19.07;48.56;99816.80;1756469;80;27985;-45
2023/08/08 09:46:40;;;;;;;73.65;69.07;;;;;;;19.16;48.42;99826.88;1782988;79;26131;-45
2023/08/08 09:49:06;;;;;;;70.10;66.00;;;;;;;19.16;49.18;99818.07;1782915;80;25622;-45
2023/08/08 09:51:36;;;;;;;70.78;66.57;;;;;;;19.34;49.86;99819.59;1782889;80;25586;-45
2023/08/08 09:54:10;;;;;;;70.22;66.02;;;;;;;19.65;48.57;99810.61;1756405;80;25567;-46
2023/08/08 09:56:34;;;;;;;73.02;68.75;;;;;;;19.88;47.47;99835.66;1781533;80;27325;-45
2023/08/08 09:59:03;;;;;;;70.22;65.92;;;;;;;20.02;47.42;99848.08;1782778;80;25376;-44
2023/08/08 10:01:32;;;;;;;73.37;69.05;;;;;;;20.05;45.95;99811.63;1782630;79;25616;-45
2023/08/08 10:03:59;;;;;;;69.77;65.73;;;;;;;19.98;46.52;99819.83;1783077;80;25474;-46
2023/08/08 10:06:27;;;;;;;72.00;67.58;;;;;;;19.89;47.01;99815.29;1782840;79;25629;-45
2023/08/08 10:08:54;;;;;;;69.58;65.30;;;;;;;19.89;47.25;99824.30;1782823;80;27382;-46
2023/08/08 10:11:22;;;;;;;70.95;66.90;;;;;;;19.90;47.51;99826.45;1782724;80;25731;-46
2023/08/08 10:13:52;;;;;;;71.30;67.30;;;;;;;19.80;46.95;99823.84;1782976;80;25394;-44
2023/08/08 10:16:20;;;;;;;69.25;65.35;;;;;;;19.66;46.57;99823.73;1782900;80;25915;-46
2023/08/08 10:19:03;;;;;;;68.85;64.40;;;;;;;19.55;47.25;99818.95;1783205;80;25558;-45
2023/08/08 10:21:40;;;;;;;74.05;69.67;;;;;;;19.48;46.74;99819.48;1783166;80;27960;-44
2023/08/08 10:24:09;;;;;;;71.53;67.40;;;;;;;19.39;47.07;99819.25;1782855;80;25533;-45
2023/08/08 10:26:57;;;;;;;72.22;67.92;;;;;;;19.41;47.54;99827.09;1756509;80;33198;-45
2023/08/08 10:29:26;;;;;;;71.42;67.30;;;;;;;19.46;47.54;99823.19;1790025;78;25798;-46
2023/08/08 10:32:03;;;;;;;69.50;65.45;;;;;;;19.70;46.84;99817.67;1813051;79;25395;-45
2023/08/08 10:34:43;;;;;;;72.03;67.87;;;;;;;19.71;47.02;99822.78;1812899;79;28208;-44
2023/08/08 10:37:17;;;;;;;69.55;65.22;;;;;;;19.71;46.94;99818.66;1787575;79;25799;-44
2023/08/08 10:40:05;;;;;;;72.37;68.20;;;;;;;19.82;46.91;99813.86;1780890;80;25462;-45
2023/08/08 10:42:30;;;;;;;71.00;66.87;;;;;;;19.83;46.48;99820.33;1780377;80;25446;-45
2023/08/08 10:45:01;;;;;;;69.50;65.60;;;;;;;19.86;46.80;99827.80;1780826;80;25584;-44
2023/08/08 10:47:38;;;;;;;73.72;69.30;;;;;;;19.78;44.94;99828.36;1780805;80;27992;-44
2023/08/08 10:50:15;;;;;;;73.87;69.47;;;;;;;19.66;46.07;99832.73;1780677;80;25641;-45
2023/08/08 10:52:56;;;;;;;71.12;67.08;;;;;;;19.58;45.56;99829.73;1777310;80;25543;-43
2023/08/08 10:55:27;;;;;;;68.00;64.10;;;;;;;19.54;46.51;99839.31;1780796;80;25886;-44
2023/08/08 10:58:08;;;;;;;68.85;64.67;;;;;;;19.59;45.47;99834.84;1780912;80;25475;-44
2023/08/08 11:00:36;;;;;;;70.50;66.60;;;;;;;19.83;45.64;99834.64;1780799;80;27893;-45
2023/08/08 11:03:04;;;;;;;70.70;66.55;;;;;;;20.20;46.52;99830.33;1753061;78;25666;-44
2023/08/08 11:05:33;;;;;;;73.83;69.67;;;;;;;20.86;45.06;99837.64;1755843;81;25621;-46
2023/08/08 11:08:01;;;;;;;69.23;65.33;;;;;;;21.39;45.90;99838.86;1757140;81;25581;-45
2023/08/08 11:10:32;;;;;;;72.10;68.00;;;;;;;21.68;42.69;99848.50;1757912;81;25553;-45
2023/08/08 11:13:03;;;;;;;69.85;65.35;;;;;;;21.44;41.88;99830.98;1756856;81;27424;-46
2023/08/08 11:15:36;;;;;;;71.17;67.00;;;;;;;21.17;40.76;99835.32;1757573;81;25543;-45
2023/08/08 14:15:25;;;;;;;69.47;65.20;;;;;;;20.41;40.65;99923.01;1868392;76;35088;-47
2023/08/08 14:17:52;;;;;;;70.00;66.10;;;;;;;20.18;40.64;99912.30;1824555;78;25406;-48
2023/08/08 14:20:18;;;;;;;66.40;62.65;;;;;;;20.08;40.57;99911.66;1824479;78;27566;-46